Portada
METAR-TAF:

METAR-TAF

Aeroports :

Iguaçú, Argentina

latitud: 25-44S, longitud: 054-28W, altitud: 270 m

Observació

L'informe es va fer fa 54 minuts, a les 23:00 UTC
Vent calma
Temperatura 16°C
Humitat 94%
Pressió 1016 hPa
Visibilitat 10 km o més
sense núvols per sota de 1500 mi sense presència de cumulonimbus.

METAR: SARI 292300Z 00000KT CAVOK 16/15 Q1016

Hora: 20:54 (23:54 UTC)

Pronòstic

L'informe es va fer fa 54 minuts, a les 23:00 UTC
Pronòstic vàlid del 30 a les 00 UTC al 30 a les 24 UTC
Vent kt del Nord
Visibilitat 10 km o més
sense núvols per sota de 1500 mi sense presència de cumulonimbus.
Probabilitat 40%
l' 30 a les 08 UTC al 30 a les 11 UTC
Visibilitat: 0500 m
boira

TAF: SARI 292300Z 3000/3024 00000KT CAVOK TX25/3018Z TN10/3010Z PROB40 3008/3011 0500 FG

Observacions i pronòstics meteorològics de més de 4000 aeroports (METAR i TAF).

Les estacions disponibles són els punts grocs i vermells al mapa.

Posi el ratolí al punt desitjat per veure el nom de l'estació.

Feu clic per veure les observacions i els pronòstics meteorològics.

Per canviar el mapa: feu clic els botons verds amb una creu de color negre per apropar; al botó verd amb un guió per allunyar la imatge; o en les fletxes verdes per a mapes adjacents.


METAR-TAF: